createdAt,value
2017-09-30T00:01:29.380Z,18.62
2017-09-30T00:03:56.844Z,18.62
2017-09-30T00:06:24.360Z,18.58
2017-09-30T00:08:51.828Z,18.67
2017-09-30T00:11:19.534Z,18.63
2017-09-30T00:13:47.010Z,18.55
2017-09-30T00:16:14.470Z,18.52
2017-09-30T00:18:41.976Z,18.52
2017-09-30T00:21:09.433Z,18.54
2017-09-30T00:23:36.910Z,18.56
2017-09-30T00:26:04.378Z,18.54
2017-09-30T00:28:31.869Z,18.57
2017-09-30T00:30:59.344Z,18.54
2017-09-30T00:33:26.849Z,18.45
2017-09-30T00:35:54.330Z,18.42
2017-09-30T00:38:21.797Z,18.37
2017-09-30T00:40:49.308Z,18.38
2017-09-30T00:43:16.796Z,18.40
2017-09-30T00:45:44.335Z,18.44
2017-09-30T00:48:11.846Z,18.49
2017-09-30T00:50:39.377Z,18.47
2017-09-30T00:53:06.866Z,18.46
2017-09-30T00:55:34.375Z,18.44
2017-09-30T00:58:01.837Z,18.36
2017-09-30T01:00:29.294Z,18.36
2017-09-30T01:02:56.777Z,18.40
2017-09-30T01:05:24.258Z,18.41
2017-09-30T01:07:51.745Z,18.40
2017-09-30T01:10:19.224Z,18.35
2017-09-30T01:12:46.709Z,18.31
2017-09-30T01:15:14.208Z,18.30
2017-09-30T01:17:41.674Z,18.25
2017-09-30T01:20:09.208Z,18.21
2017-09-30T01:22:36.683Z,18.17
2017-09-30T01:25:04.175Z,18.18
2017-09-30T01:27:31.641Z,18.19
2017-09-30T01:29:59.131Z,18.16
2017-09-30T01:32:26.584Z,18.17
2017-09-30T01:34:54.077Z,18.22
2017-09-30T01:37:21.555Z,18.31
2017-09-30T01:39:49.041Z,18.20
2017-09-30T01:42:16.549Z,18.19
2017-09-30T01:44:44.054Z,18.18
2017-09-30T01:47:11.571Z,18.16
2017-09-30T01:49:39.021Z,18.14
2017-09-30T01:52:06.518Z,18.16
2017-09-30T01:54:33.993Z,18.13
2017-09-30T01:57:01.497Z,18.06
2017-09-30T01:59:28.954Z,18.07
2017-09-30T02:01:56.484Z,18.05
2017-09-30T02:04:23.986Z,18.11
2017-09-30T02:06:51.478Z,18.17
2017-09-30T02:09:18.958Z,18.11
2017-09-30T02:11:46.479Z,18.06
2017-09-30T02:14:13.972Z,18.08
2017-09-30T02:16:41.478Z,17.91
2017-09-30T02:19:08.979Z,18.08
2017-09-30T02:21:36.461Z,18.04
2017-09-30T02:24:03.939Z,17.99
2017-09-30T02:26:31.423Z,17.93
2017-09-30T02:28:58.956Z,17.92
2017-09-30T02:31:26.442Z,17.92
2017-09-30T02:33:53.931Z,17.93
2017-09-30T02:36:21.390Z,17.97
2017-09-30T02:38:48.892Z,17.94
2017-09-30T02:41:16.447Z,17.99
2017-09-30T02:43:43.998Z,17.94
2017-09-30T02:46:11.492Z,17.94
2017-09-30T02:48:38.950Z,17.94
2017-09-30T02:51:06.438Z,17.89
2017-09-30T02:53:33.894Z,17.88
2017-09-30T02:56:01.393Z,17.85
2017-09-30T02:58:28.877Z,17.87
2017-09-30T03:00:56.353Z,17.88
2017-09-30T03:03:23.882Z,17.90
2017-09-30T03:05:51.341Z,17.87
2017-09-30T03:08:18.820Z,17.92
2017-09-30T03:10:46.399Z,17.92
2017-09-30T03:13:14.249Z,17.95
2017-09-30T03:15:41.717Z,17.94
2017-09-30T03:18:09.221Z,17.91
2017-09-30T03:20:36.685Z,17.94
2017-09-30T03:23:04.263Z,17.95
2017-09-30T03:25:31.727Z,17.84
2017-09-30T03:27:59.220Z,17.85
2017-09-30T03:30:26.721Z,17.85
2017-09-30T03:32:54.181Z,17.84
2017-09-30T03:35:21.669Z,17.68
2017-09-30T03:37:49.162Z,17.60
2017-09-30T03:40:16.647Z,17.72
2017-09-30T03:42:44.102Z,17.81
2017-09-30T03:45:11.600Z,17.86
2017-09-30T03:47:39.077Z,17.87
2017-09-30T03:50:06.555Z,17.89
2017-09-30T03:52:34.044Z,17.87
2017-09-30T03:55:01.502Z,17.84
2017-09-30T03:57:28.985Z,17.79
2017-09-30T03:59:56.464Z,17.80
2017-09-30T04:02:23.964Z,17.83
2017-09-30T04:04:51.425Z,17.73
2017-09-30T04:07:18.920Z,17.71
2017-09-30T04:09:46.371Z,17.70
2017-09-30T04:12:13.903Z,17.73
2017-09-30T04:14:41.369Z,17.76
2017-09-30T04:17:08.853Z,17.80
2017-09-30T04:19:36.318Z,17.89
2017-09-30T04:22:03.838Z,17.97
2017-09-30T04:24:31.294Z,17.91
2017-09-30T04:26:58.775Z,17.96
2017-09-30T04:29:26.288Z,18.01
2017-09-30T04:31:53.749Z,17.89
2017-09-30T04:34:21.235Z,17.84
2017-09-30T04:36:48.710Z,17.78
2017-09-30T04:39:16.217Z,17.76
2017-09-30T04:41:43.709Z,17.74
2017-09-30T04:44:11.218Z,17.68
2017-09-30T04:46:38.695Z,17.70
2017-09-30T04:49:06.197Z,17.69
2017-09-30T04:51:33.693Z,17.67
2017-09-30T04:54:01.151Z,17.62
2017-09-30T04:56:28.667Z,17.58
2017-09-30T04:58:56.181Z,17.57
2017-09-30T05:01:23.680Z,17.60
2017-09-30T05:03:51.173Z,17.63
2017-09-30T05:06:18.686Z,17.64
2017-09-30T05:08:46.260Z,17.65
2017-09-30T05:11:13.762Z,17.65
2017-09-30T05:13:41.263Z,17.64
2017-09-30T05:16:08.738Z,17.53
2017-09-30T05:18:36.236Z,17.52
2017-09-30T05:21:03.712Z,17.53
2017-09-30T05:23:31.309Z,17.46
2017-09-30T05:25:58.805Z,17.41
2017-09-30T05:28:26.265Z,17.41
2017-09-30T05:30:53.780Z,17.39
2017-09-30T05:33:21.265Z,17.37
2017-09-30T05:35:48.749Z,17.31
2017-09-30T05:38:16.221Z,17.29
2017-09-30T05:40:43.722Z,17.33
2017-09-30T05:43:11.222Z,17.29
2017-09-30T05:45:38.676Z,17.29
2017-09-30T05:48:06.156Z,17.36
2017-09-30T05:50:33.665Z,17.38
2017-09-30T05:53:01.148Z,17.42
2017-09-30T05:55:28.605Z,17.43
2017-09-30T05:57:56.109Z,17.45
2017-09-30T06:00:23.578Z,17.47
2017-09-30T06:02:51.092Z,17.40
2017-09-30T06:05:18.597Z,17.42
2017-09-30T06:07:46.097Z,17.43
2017-09-30T06:10:13.576Z,17.45
2017-09-30T06:12:41.060Z,17.51
2017-09-30T06:15:08.578Z,17.56
2017-09-30T06:17:36.032Z,17.49
2017-09-30T06:20:03.548Z,17.52
2017-09-30T06:22:31.018Z,17.56
2017-09-30T06:24:58.505Z,17.61
2017-09-30T06:27:25.994Z,17.65
2017-09-30T06:29:53.508Z,17.68
2017-09-30T06:32:20.989Z,17.70
2017-09-30T06:34:48.696Z,17.68
2017-09-30T06:37:16.186Z,17.73
2017-09-30T06:39:43.661Z,17.85
2017-09-30T06:42:11.171Z,17.82
2017-09-30T06:44:38.626Z,17.67
2017-09-30T06:47:06.112Z,17.62
2017-09-30T06:49:33.608Z,17.63
2017-09-30T06:52:01.098Z,17.74
2017-09-30T06:54:28.620Z,17.85
2017-09-30T06:56:56.108Z,17.92
2017-09-30T06:59:23.600Z,17.66
2017-09-30T07:01:51.101Z,18.14
2017-09-30T07:04:18.573Z,18.20
2017-09-30T07:06:46.097Z,18.24
2017-09-30T07:09:13.645Z,18.32
2017-09-30T07:11:41.110Z,18.36
2017-09-30T07:14:08.698Z,18.21
2017-09-30T07:16:36.228Z,18.16
2017-09-30T07:19:03.753Z,18.27
2017-09-30T07:21:31.321Z,18.36
2017-09-30T07:23:58.989Z,18.40
2017-09-30T07:26:26.491Z,18.42
2017-09-30T07:28:53.997Z,18.58
2017-09-30T07:31:22.129Z,18.62
2017-09-30T07:33:49.622Z,18.85
2017-09-30T07:36:17.169Z,18.83
2017-09-30T07:38:44.669Z,18.87
2017-09-30T07:41:12.183Z,18.88
2017-09-30T07:43:39.649Z,19.00
2017-09-30T07:46:07.217Z,19.01
2017-09-30T07:48:34.755Z,19.05
2017-09-30T07:51:02.336Z,19.05
2017-09-30T07:53:29.879Z,19.14
2017-09-30T07:55:57.367Z,19.14
2017-09-30T07:58:24.854Z,19.21
2017-09-30T08:00:52.390Z,19.24
2017-09-30T08:03:19.870Z,19.27
2017-09-30T08:05:47.401Z,19.40
2017-09-30T08:08:14.936Z,19.47
2017-09-30T08:10:42.419Z,19.53
2017-09-30T08:13:09.925Z,19.58
2017-09-30T08:15:37.453Z,19.58
2017-09-30T08:18:05.001Z,19.66
2017-09-30T08:20:32.633Z,19.79
2017-09-30T08:23:00.089Z,19.79
2017-09-30T08:25:27.600Z,19.88
2017-09-30T08:27:55.140Z,20.00
2017-09-30T08:30:22.642Z,20.15
2017-09-30T08:32:53.167Z,20.34
2017-09-30T08:35:20.640Z,20.50
2017-09-30T08:37:48.129Z,20.56
2017-09-30T08:40:15.633Z,20.76
2017-09-30T08:42:43.129Z,20.92
2017-09-30T08:45:10.645Z,21.02
2017-09-30T08:47:38.159Z,21.17
2017-09-30T08:50:05.681Z,21.32
2017-09-30T08:52:33.493Z,21.40
2017-09-30T08:55:00.982Z,21.49
2017-09-30T08:57:28.495Z,21.61
2017-09-30T08:59:56.017Z,21.59
2017-09-30T09:02:23.508Z,21.52
2017-09-30T09:04:51.001Z,21.52
2017-09-30T09:07:18.465Z,21.48
2017-09-30T09:09:45.984Z,21.46
2017-09-30T09:12:13.560Z,21.66
2017-09-30T09:14:41.025Z,21.68
2017-09-30T09:17:08.821Z,21.65
2017-09-30T09:19:36.316Z,21.71
2017-09-30T09:22:04.293Z,21.75
2017-09-30T09:24:32.523Z,21.67
2017-09-30T09:27:00.011Z,21.67
2017-09-30T09:29:27.506Z,21.67
2017-09-30T09:31:54.989Z,21.74
2017-09-30T09:34:22.608Z,21.78
2017-09-30T09:36:50.096Z,21.82
2017-09-30T09:39:17.610Z,21.86
2017-09-30T09:41:45.900Z,21.86
2017-09-30T09:44:13.408Z,22.02
2017-09-30T09:46:40.881Z,22.05
2017-09-30T09:49:08.371Z,22.09
2017-09-30T09:51:35.897Z,22.10
2017-09-30T09:54:03.431Z,22.00
2017-09-30T09:56:30.893Z,22.26
2017-09-30T09:58:58.429Z,22.32
2017-09-30T10:01:26.029Z,22.41
2017-09-30T10:03:53.551Z,22.33
2017-09-30T10:06:21.173Z,22.31
2017-09-30T10:08:48.655Z,22.42
2017-09-30T10:11:16.162Z,22.40
2017-09-30T10:13:43.684Z,22.44
2017-09-30T10:16:11.173Z,22.36
2017-09-30T10:18:38.680Z,22.26
2017-09-30T10:21:06.181Z,22.23
2017-09-30T10:23:33.655Z,22.12
2017-09-30T10:26:01.178Z,22.17
2017-09-30T10:28:28.734Z,22.19
2017-09-30T10:30:57.074Z,22.14
2017-09-30T10:33:24.576Z,22.10
2017-09-30T10:35:52.046Z,22.01
2017-09-30T10:38:19.558Z,22.10
2017-09-30T10:40:47.079Z,22.13
2017-09-30T10:43:14.570Z,22.03
2017-09-30T10:45:42.084Z,21.98
2017-09-30T10:48:09.615Z,22.05
2017-09-30T10:50:37.248Z,21.89
2017-09-30T10:53:04.720Z,22.18
2017-09-30T10:55:32.208Z,22.40
2017-09-30T10:57:59.690Z,22.44
2017-09-30T11:00:27.158Z,22.35
2017-09-30T11:02:54.658Z,22.31
2017-09-30T11:05:22.124Z,22.20
2017-09-30T11:07:49.618Z,22.12
2017-09-30T11:10:17.092Z,22.10
2017-09-30T11:12:44.580Z,22.21
2017-09-30T11:15:12.105Z,22.30
2017-09-30T11:17:39.592Z,22.32
2017-09-30T11:20:07.075Z,22.27
2017-09-30T11:22:34.561Z,22.19
2017-09-30T11:25:02.054Z,22.13
2017-09-30T11:27:29.560Z,21.92
2017-09-30T11:29:57.081Z,22.01
2017-09-30T11:32:24.604Z,22.05
2017-09-30T11:34:52.109Z,22.02
2017-09-30T11:37:19.647Z,21.99
2017-09-30T11:39:47.145Z,21.98
2017-09-30T11:42:14.640Z,22.01
2017-09-30T11:44:42.135Z,21.88
2017-09-30T11:47:09.657Z,21.97
2017-09-30T11:49:37.172Z,22.05
2017-09-30T11:52:05.357Z,22.12
2017-09-30T11:54:32.819Z,22.10
2017-09-30T11:57:00.353Z,21.92
2017-09-30T11:59:27.819Z,21.79
2017-09-30T12:01:55.460Z,21.70
2017-09-30T12:04:22.990Z,21.63
2017-09-30T12:06:50.495Z,21.52
2017-09-30T12:09:18.011Z,21.57
2017-09-30T12:11:46.124Z,21.57
2017-09-30T12:14:13.638Z,21.58
2017-09-30T12:16:41.169Z,21.52
2017-09-30T12:19:08.674Z,21.43
2017-09-30T12:21:36.181Z,21.35
2017-09-30T12:24:03.701Z,21.23
2017-09-30T12:26:31.160Z,21.24
2017-09-30T12:28:59.581Z,21.25
2017-09-30T12:31:27.033Z,21.28
2017-09-30T12:33:54.622Z,21.21
2017-09-30T12:36:22.074Z,21.19
2017-09-30T12:38:49.552Z,21.33
2017-09-30T12:41:17.059Z,20.94
2017-09-30T12:43:44.532Z,21.18
2017-09-30T12:46:12.049Z,21.23
2017-09-30T12:48:39.700Z,21.25
2017-09-30T12:51:07.194Z,21.23
2017-09-30T12:53:34.653Z,21.21
2017-09-30T12:56:02.187Z,21.04
2017-09-30T12:58:29.697Z,21.10
2017-09-30T13:00:57.188Z,20.96
2017-09-30T13:03:24.633Z,20.82
2017-09-30T13:05:52.344Z,20.50
2017-09-30T13:08:19.857Z,20.11
2017-09-30T13:10:47.344Z,19.94
2017-09-30T13:13:14.832Z,19.69
2017-09-30T13:15:42.288Z,19.45
2017-09-30T13:18:09.776Z,19.12
2017-09-30T13:20:37.252Z,19.06
2017-09-30T13:23:04.743Z,19.17
2017-09-30T13:25:32.226Z,18.96
2017-09-30T13:27:59.715Z,18.62
2017-09-30T13:30:27.588Z,18.53
2017-09-30T13:32:55.115Z,18.58
2017-09-30T13:35:22.595Z,18.48
2017-09-30T13:37:50.108Z,18.26
2017-09-30T13:40:17.621Z,18.04
2017-09-30T13:42:45.216Z,17.77
2017-09-30T13:45:12.718Z,17.56
2017-09-30T13:47:40.223Z,17.52
2017-09-30T13:50:07.713Z,17.47
2017-09-30T13:52:35.222Z,17.43
2017-09-30T13:55:02.718Z,17.49
2017-09-30T13:57:30.195Z,17.45
2017-09-30T13:59:58.440Z,17.48
2017-09-30T14:02:25.913Z,17.46
2017-09-30T14:04:53.429Z,17.33
2017-09-30T14:07:20.915Z,17.38
2017-09-30T14:09:48.400Z,17.38
2017-09-30T14:12:15.933Z,17.27
2017-09-30T14:14:43.481Z,17.26
2017-09-30T14:17:10.985Z,17.39
2017-09-30T14:19:38.453Z,17.34
2017-09-30T14:22:05.950Z,17.20
2017-09-30T14:24:33.510Z,17.12
2017-09-30T14:27:01.043Z,17.11
2017-09-30T14:29:28.547Z,17.04
2017-09-30T14:31:56.095Z,17.02
2017-09-30T14:34:23.595Z,17.12
2017-09-30T14:36:51.235Z,17.02
2017-09-30T14:39:18.745Z,17.09
2017-09-30T14:41:46.954Z,16.98
2017-09-30T14:44:14.619Z,17.03
2017-09-30T14:46:42.200Z,17.21
2017-09-30T14:49:09.727Z,17.10
2017-09-30T14:51:37.192Z,17.12
2017-09-30T14:54:04.731Z,17.20
2017-09-30T14:56:32.236Z,17.14
2017-09-30T14:58:59.801Z,16.99
2017-09-30T15:01:27.290Z,17.01
2017-09-30T15:03:55.853Z,17.08
2017-09-30T15:06:23.387Z,17.06
2017-09-30T15:08:51.456Z,17.16
2017-09-30T15:11:18.984Z,17.13
2017-09-30T15:13:46.942Z,17.12
2017-09-30T15:16:14.519Z,17.02
2017-09-30T15:18:41.992Z,16.99
2017-09-30T15:21:09.503Z,17.00
2017-09-30T15:23:36.978Z,16.98
2017-09-30T15:26:04.496Z,16.77
2017-09-30T15:28:32.019Z,16.57
2017-09-30T15:30:59.496Z,16.61
2017-09-30T15:33:27.055Z,16.49
2017-09-30T15:35:54.569Z,16.66
2017-09-30T15:38:22.091Z,16.69
2017-09-30T15:40:49.590Z,16.75
2017-09-30T15:43:17.089Z,16.81
2017-09-30T15:45:44.595Z,16.78
2017-09-30T15:48:12.115Z,16.72
2017-09-30T15:50:39.620Z,16.69
2017-09-30T15:53:07.131Z,16.69
2017-09-30T15:55:34.667Z,16.48
2017-09-30T15:58:02.182Z,16.64
2017-09-30T16:00:29.672Z,16.49
2017-09-30T16:02:57.174Z,16.67
2017-09-30T16:05:25.670Z,16.79
2017-09-30T16:07:53.189Z,16.68
2017-09-30T16:10:20.702Z,16.80
2017-09-30T16:12:48.209Z,16.70
2017-09-30T16:15:15.728Z,16.61
2017-09-30T16:17:43.287Z,16.38
2017-09-30T16:20:10.833Z,16.44
2017-09-30T16:22:39.114Z,16.53
2017-09-30T16:25:06.637Z,16.44
2017-09-30T16:27:34.188Z,16.35
2017-09-30T16:30:01.688Z,16.26
2017-09-30T16:32:29.226Z,16.33
2017-09-30T16:34:56.729Z,16.34
2017-09-30T16:37:24.256Z,16.25
2017-09-30T16:39:51.750Z,16.06
2017-09-30T16:42:19.281Z,16.07
2017-09-30T16:44:46.871Z,16.03
2017-09-30T16:47:14.420Z,16.08
2017-09-30T16:49:41.937Z,16.09
2017-09-30T16:52:09.446Z,16.10
2017-09-30T16:54:37.002Z,16.10
2017-09-30T16:57:04.538Z,16.10
2017-09-30T16:59:32.068Z,16.07
2017-09-30T17:02:07.269Z,15.96
2017-09-30T17:04:35.013Z,15.99
2017-09-30T17:07:02.521Z,16.03
2017-09-30T17:09:30.049Z,16.01
2017-09-30T17:11:57.557Z,16.11
2017-09-30T17:14:25.156Z,16.12
2017-09-30T17:16:53.985Z,16.08
2017-09-30T17:19:21.802Z,16.03
2017-09-30T17:21:49.328Z,16.08
2017-09-30T17:24:16.816Z,16.05
2017-09-30T17:26:44.368Z,16.06
2017-09-30T17:29:12.834Z,16.02
2017-09-30T17:31:41.182Z,15.94
2017-09-30T17:34:08.691Z,16.01
2017-09-30T17:36:36.216Z,16.07
2017-09-30T17:39:03.700Z,16.08
2017-09-30T17:41:31.466Z,16.11
2017-09-30T17:43:58.967Z,16.07
2017-09-30T17:46:26.492Z,15.88
2017-09-30T17:48:53.999Z,15.91
2017-09-30T17:51:21.510Z,15.96
2017-09-30T17:53:49.038Z,16.05
2017-09-30T17:56:16.565Z,16.06
2017-09-30T17:58:44.090Z,15.95
2017-09-30T18:01:12.574Z,15.91
2017-09-30T18:03:40.075Z,15.94
2017-09-30T18:06:07.583Z,15.90
2017-09-30T18:08:36.382Z,15.97
2017-09-30T18:11:03.891Z,15.89
2017-09-30T18:13:32.273Z,15.85
2017-09-30T18:16:01.094Z,15.85
2017-09-30T18:18:29.487Z,15.87
2017-09-30T18:20:57.032Z,15.82
2017-09-30T18:23:24.562Z,15.81
2017-09-30T18:25:52.026Z,15.85
2017-09-30T18:28:19.762Z,15.82
2017-09-30T18:30:47.286Z,15.72
2017-09-30T18:33:14.789Z,15.72
2017-09-30T18:35:42.326Z,15.70
2017-09-30T18:38:09.846Z,15.63
2017-09-30T18:40:37.369Z,15.64
2017-09-30T18:43:04.882Z,15.63
2017-09-30T18:45:32.418Z,15.48
2017-09-30T18:47:59.945Z,15.52
2017-09-30T18:50:27.472Z,15.54
2017-09-30T18:52:56.023Z,15.62
2017-09-30T18:55:23.569Z,15.63
2017-09-30T18:57:51.082Z,15.65
2017-09-30T19:00:18.650Z,15.69
2017-09-30T19:02:47.534Z,15.60
2017-09-30T19:05:15.645Z,15.55
2017-09-30T19:07:43.217Z,15.46
2017-09-30T19:10:11.054Z,15.46
2017-09-30T19:12:38.572Z,15.52
2017-09-30T19:15:06.102Z,15.57
2017-09-30T19:17:33.661Z,15.51
2017-09-30T19:20:02.660Z,15.52
2017-09-30T19:22:30.943Z,15.57
2017-09-30T19:24:58.490Z,15.44
2017-09-30T19:27:26.044Z,15.30
2017-09-30T19:29:53.932Z,15.19
2017-09-30T19:32:22.392Z,15.16
2017-09-30T19:34:50.844Z,15.24
2017-09-30T19:37:18.391Z,15.24
2017-09-30T19:39:45.961Z,15.19
2017-09-30T19:42:13.506Z,15.23
2017-09-30T19:44:41.060Z,15.37
2017-09-30T19:47:08.602Z,15.46
2017-09-30T19:49:36.200Z,15.45
2017-09-30T19:52:04.663Z,15.43
2017-09-30T19:54:32.205Z,15.45
2017-09-30T19:56:59.763Z,15.58
2017-09-30T19:59:27.272Z,15.62
2017-09-30T20:01:55.681Z,15.56
2017-09-30T20:04:24.539Z,15.62
2017-09-30T20:06:52.814Z,15.61
2017-09-30T20:09:21.062Z,15.57
2017-09-30T20:11:48.632Z,15.53
2017-09-30T20:14:16.158Z,15.58
2017-09-30T20:16:43.693Z,15.63
2017-09-30T20:19:12.157Z,15.59
2017-09-30T20:21:40.620Z,15.53
2017-09-30T20:24:08.548Z,15.60
2017-09-30T20:26:36.835Z,15.56
2017-09-30T20:29:04.940Z,15.59
2017-09-30T20:31:32.490Z,15.46
2017-09-30T20:34:00.061Z,15.64
2017-09-30T20:36:27.985Z,15.64
2017-09-30T20:38:55.506Z,15.64
2017-09-30T20:41:23.269Z,15.66
2017-09-30T20:43:51.679Z,15.63
2017-09-30T20:46:19.405Z,15.46
2017-09-30T20:48:46.973Z,15.41
2017-09-30T20:51:14.463Z,15.55
2017-09-30T20:53:41.985Z,15.63
2017-09-30T20:56:09.486Z,15.66
2017-09-30T20:58:37.083Z,15.71
2017-09-30T21:01:04.591Z,15.72
2017-09-30T21:03:32.108Z,15.71
2017-09-30T21:05:59.676Z,15.63
2017-09-30T21:08:27.180Z,15.56
2017-09-30T21:10:54.719Z,15.53
2017-09-30T21:13:22.258Z,15.43
2017-09-30T21:15:49.791Z,15.49
2017-09-30T21:18:17.312Z,15.47
2017-09-30T21:20:44.976Z,15.43
2017-09-30T21:23:12.513Z,15.44
2017-09-30T21:25:40.710Z,15.43
2017-09-30T21:28:08.224Z,15.34
2017-09-30T21:30:35.753Z,15.35
2017-09-30T21:33:03.264Z,15.33
2017-09-30T21:35:30.744Z,15.29
2017-09-30T21:37:58.262Z,15.18
2017-09-30T21:40:25.762Z,15.12
2017-09-30T21:42:53.316Z,15.07
2017-09-30T21:45:20.808Z,15.06
2017-09-30T21:47:48.295Z,15.04
2017-09-30T21:50:15.809Z,15.10
2017-09-30T21:52:43.306Z,15.04
2017-09-30T21:55:10.858Z,14.96
2017-09-30T21:57:38.765Z,15.13
2017-09-30T22:00:06.287Z,15.03
2017-09-30T22:02:33.785Z,14.97
2017-09-30T22:05:01.954Z,15.00
2017-09-30T22:07:30.091Z,14.89
2017-09-30T22:09:57.604Z,14.91
2017-09-30T22:12:25.130Z,14.94
2017-09-30T22:14:52.588Z,14.94
2017-09-30T22:17:20.098Z,14.93
2017-09-30T22:19:47.634Z,14.81
2017-09-30T22:22:15.136Z,14.80
2017-09-30T22:24:42.616Z,14.81
2017-09-30T22:27:10.129Z,14.72
2017-09-30T22:29:37.603Z,14.65
2017-09-30T22:32:05.146Z,14.64
2017-09-30T22:34:32.652Z,14.58
2017-09-30T22:37:00.197Z,14.51
2017-09-30T22:39:27.698Z,14.48
2017-09-30T22:41:55.184Z,14.51
2017-09-30T22:44:22.712Z,14.59
2017-09-30T22:46:50.217Z,14.59
2017-09-30T22:49:17.753Z,14.50
2017-09-30T22:51:45.232Z,14.48
2017-09-30T22:54:12.745Z,14.48
2017-09-30T22:56:40.226Z,14.53
2017-09-30T22:59:07.752Z,14.44
2017-09-30T23:01:35.302Z,14.39
2017-09-30T23:04:02.771Z,14.45
2017-09-30T23:06:30.977Z,14.48
2017-09-30T23:08:58.492Z,14.44
2017-09-30T23:11:25.978Z,14.47
2017-09-30T23:13:53.433Z,14.53
2017-09-30T23:16:21.218Z,14.54
2017-09-30T23:18:48.698Z,14.62
2017-09-30T23:21:16.182Z,14.63
2017-09-30T23:23:43.673Z,14.46
2017-09-30T23:26:11.145Z,14.21
2017-09-30T23:28:38.627Z,14.18
2017-09-30T23:31:06.102Z,14.24
2017-09-30T23:33:33.726Z,14.19
2017-09-30T23:36:01.225Z,14.22
2017-09-30T23:38:28.689Z,14.13
2017-09-30T23:40:56.385Z,14.05
2017-09-30T23:43:23.842Z,14.08
2017-09-30T23:45:51.324Z,14.10
2017-09-30T23:48:18.789Z,14.15
2017-09-30T23:50:46.286Z,14.16
2017-09-30T23:53:13.784Z,14.17
2017-09-30T23:55:41.272Z,14.17
2017-09-30T23:58:08.745Z,14.08
